sensor_id;sensor_type;location;lat;lon;timestamp;P1;durP1;ratioP1;P2;durP2;ratioP2
56413;SDS011;42318;48.452;19.526;2024-02-28T00:01:23;3.00;;;2.55;;
56413;SDS011;42318;48.452;19.526;2024-02-28T00:04:25;3.47;;;3.10;;
56413;SDS011;42318;48.452;19.526;2024-02-28T00:07:25;4.30;;;2.80;;
56413;SDS011;42318;48.452;19.526;2024-02-28T00:10:26;3.95;;;2.78;;
56413;SDS011;42318;48.452;19.526;2024-02-28T00:13:27;2.90;;;2.60;;
56413;SDS011;42318;48.452;19.526;2024-02-28T00:16:27;3.50;;;3.05;;
56413;SDS011;42318;48.452;19.526;2024-02-28T00:19:28;3.45;;;2.78;;
56413;SDS011;42318;48.452;19.526;2024-02-28T00:22:29;3.47;;;2.83;;
56413;SDS011;42318;48.452;19.526;2024-02-28T00:25:30;3.47;;;2.90;;
56413;SDS011;42318;48.452;19.526;2024-02-28T00:28:31;3.83;;;2.92;;
56413;SDS011;42318;48.452;19.526;2024-02-28T00:31:32;3.58;;;2.80;;
56413;SDS011;42318;48.452;19.526;2024-02-28T00:34:32;3.33;;;3.00;;
56413;SDS011;42318;48.452;19.526;2024-02-28T00:37:33;3.20;;;2.90;;
56413;SDS011;42318;48.452;19.526;2024-02-28T00:40:34;4.18;;;2.97;;
56413;SDS011;42318;48.452;19.526;2024-02-28T00:43:35;3.60;;;2.92;;
56413;SDS011;42318;48.452;19.526;2024-02-28T00:46:36;3.45;;;3.15;;
56413;SDS011;42318;48.452;19.526;2024-02-28T00:49:37;3.40;;;2.80;;
56413;SDS011;42318;48.452;19.526;2024-02-28T00:52:37;3.25;;;2.90;;
56413;SDS011;42318;48.452;19.526;2024-02-28T00:55:38;3.30;;;2.78;;
56413;SDS011;42318;48.452;19.526;2024-02-28T00:58:39;5.00;;;3.10;;
56413;SDS011;42318;48.452;19.526;2024-02-28T01:01:40;4.32;;;2.58;;
56413;SDS011;42318;48.452;19.526;2024-02-28T01:04:41;3.70;;;3.05;;
56413;SDS011;42318;48.452;19.526;2024-02-28T01:07:42;3.20;;;2.90;;
56413;SDS011;42318;48.452;19.526;2024-02-28T01:10:43;3.35;;;3.03;;
56413;SDS011;42318;48.452;19.526;2024-02-28T01:13:44;3.10;;;2.42;;
56413;SDS011;42318;48.452;19.526;2024-02-28T01:16:45;3.20;;;2.45;;
56413;SDS011;42318;48.452;19.526;2024-02-28T01:19:46;3.35;;;2.60;;
56413;SDS011;42318;48.452;19.526;2024-02-28T01:22:46;3.45;;;2.78;;
56413;SDS011;42318;48.452;19.526;2024-02-28T01:25:48;3.65;;;2.72;;
56413;SDS011;42318;48.452;19.526;2024-02-28T01:28:49;3.90;;;3.33;;
56413;SDS011;42318;48.452;19.526;2024-02-28T01:31:50;3.50;;;2.50;;
56413;SDS011;42318;48.452;19.526;2024-02-28T01:34:51;3.58;;;2.90;;
56413;SDS011;42318;48.452;19.526;2024-02-28T01:37:52;3.17;;;2.78;;
56413;SDS011;42318;48.452;19.526;2024-02-28T01:40:52;4.15;;;2.63;;
56413;SDS011;42318;48.452;19.526;2024-02-28T01:43:53;2.97;;;2.65;;
56413;SDS011;42318;48.452;19.526;2024-02-28T01:46:54;3.20;;;2.63;;
56413;SDS011;42318;48.452;19.526;2024-02-28T01:49:57;3.08;;;2.40;;
56413;SDS011;42318;48.452;19.526;2024-02-28T01:52:57;3.72;;;2.88;;
56413;SDS011;42318;48.452;19.526;2024-02-28T01:55:59;3.13;;;2.63;;
56413;SDS011;42318;48.452;19.526;2024-02-28T01:58:59;3.28;;;2.78;;
56413;SDS011;42318;48.452;19.526;2024-02-28T02:02:02;2.92;;;2.60;;
56413;SDS011;42318;48.452;19.526;2024-02-28T02:05:02;3.30;;;2.72;;
56413;SDS011;42318;48.452;19.526;2024-02-28T02:08:03;3.10;;;2.67;;
56413;SDS011;42318;48.452;19.526;2024-02-28T02:11:05;2.58;;;2.30;;
56413;SDS011;42318;48.452;19.526;2024-02-28T02:14:06;2.80;;;2.50;;
56413;SDS011;42318;48.452;19.526;2024-02-28T02:17:07;3.25;;;2.58;;
56413;SDS011;42318;48.452;19.526;2024-02-28T02:20:09;5.22;;;2.78;;
56413;SDS011;42318;48.452;19.526;2024-02-28T02:23:12;3.67;;;2.80;;
56413;SDS011;42318;48.452;19.526;2024-02-28T02:26:13;3.05;;;2.63;;
56413;SDS011;42318;48.452;19.526;2024-02-28T02:29:13;3.15;;;2.60;;
56413;SDS011;42318;48.452;19.526;2024-02-28T02:32:14;3.25;;;2.42;;
56413;SDS011;42318;48.452;19.526;2024-02-28T02:35:15;2.90;;;2.60;;
56413;SDS011;42318;48.452;19.526;2024-02-28T02:38:15;3.10;;;2.50;;
56413;SDS011;42318;48.452;19.526;2024-02-28T02:41:16;3.35;;;2.30;;
56413;SDS011;42318;48.452;19.526;2024-02-28T02:44:17;3.03;;;2.67;;
56413;SDS011;42318;48.452;19.526;2024-02-28T02:47:17;3.08;;;2.60;;
56413;SDS011;42318;48.452;19.526;2024-02-28T02:50:18;3.00;;;2.70;;
56413;SDS011;42318;48.452;19.526;2024-02-28T02:53:18;3.05;;;2.38;;
56413;SDS011;42318;48.452;19.526;2024-02-28T02:56:20;4.40;;;3.10;;
56413;SDS011;42318;48.452;19.526;2024-02-28T02:59:20;3.20;;;2.72;;
56413;SDS011;42318;48.452;19.526;2024-02-28T03:02:22;3.10;;;2.40;;
56413;SDS011;42318;48.452;19.526;2024-02-28T03:05:22;2.78;;;2.40;;
56413;SDS011;42318;48.452;19.526;2024-02-28T03:08:23;2.88;;;2.58;;
56413;SDS011;42318;48.452;19.526;2024-02-28T03:11:24;3.03;;;2.45;;
56413;SDS011;42318;48.452;19.526;2024-02-28T03:14:25;3.05;;;2.47;;
56413;SDS011;42318;48.452;19.526;2024-02-28T03:17:27;2.90;;;2.50;;
56413;SDS011;42318;48.452;19.526;2024-02-28T03:20:28;3.42;;;2.70;;
56413;SDS011;42318;48.452;19.526;2024-02-28T03:23:28;3.38;;;2.60;;
56413;SDS011;42318;48.452;19.526;2024-02-28T03:26:29;2.85;;;2.38;;
56413;SDS011;42318;48.452;19.526;2024-02-28T03:29:29;3.13;;;2.80;;
56413;SDS011;42318;48.452;19.526;2024-02-28T03:32:30;2.53;;;2.33;;
56413;SDS011;42318;48.452;19.526;2024-02-28T03:35:31;2.63;;;2.30;;
56413;SDS011;42318;48.452;19.526;2024-02-28T03:38:31;2.95;;;2.47;;
56413;SDS011;42318;48.452;19.526;2024-02-28T03:41:32;3.10;;;2.70;;
56413;SDS011;42318;48.452;19.526;2024-02-28T03:44:33;3.25;;;2.47;;
56413;SDS011;42318;48.452;19.526;2024-02-28T03:47:33;3.17;;;2.50;;
56413;SDS011;42318;48.452;19.526;2024-02-28T03:50:34;3.08;;;2.25;;
56413;SDS011;42318;48.452;19.526;2024-02-28T03:53:35;3.28;;;2.65;;
56413;SDS011;42318;48.452;19.526;2024-02-28T03:56:35;2.53;;;2.10;;
56413;SDS011;42318;48.452;19.526;2024-02-28T03:59:36;3.00;;;2.70;;
56413;SDS011;42318;48.452;19.526;2024-02-28T04:02:37;2.97;;;2.20;;
56413;SDS011;42318;48.452;19.526;2024-02-28T04:05:37;2.45;;;2.10;;
56413;SDS011;42318;48.452;19.526;2024-02-28T04:08:38;2.90;;;2.20;;
56413;SDS011;42318;48.452;19.526;2024-02-28T04:11:41;2.50;;;2.30;;
56413;SDS011;42318;48.452;19.526;2024-02-28T04:14:43;2.90;;;2.38;;
56413;SDS011;42318;48.452;19.526;2024-02-28T04:17:43;2.60;;;2.30;;
56413;SDS011;42318;48.452;19.526;2024-02-28T04:20:44;2.40;;;2.20;;
56413;SDS011;42318;48.452;19.526;2024-02-28T04:23:44;2.40;;;2.20;;
56413;SDS011;42318;48.452;19.526;2024-02-28T04:26:45;2.97;;;2.30;;
56413;SDS011;42318;48.452;19.526;2024-02-28T04:29:46;2.80;;;2.25;;
56413;SDS011;42318;48.452;19.526;2024-02-28T04:32:46;3.38;;;3.03;;
56413;SDS011;42318;48.452;19.526;2024-02-28T04:35:47;3.03;;;2.35;;
56413;SDS011;42318;48.452;19.526;2024-02-28T04:38:48;2.45;;;2.13;;
56413;SDS011;42318;48.452;19.526;2024-02-28T04:41:48;2.50;;;2.30;;
56413;SDS011;42318;48.452;19.526;2024-02-28T04:44:49;2.53;;;2.20;;
56413;SDS011;42318;48.452;19.526;2024-02-28T04:47:49;3.40;;;2.00;;
56413;SDS011;42318;48.452;19.526;2024-02-28T04:50:52;2.90;;;2.50;;
56413;SDS011;42318;48.452;19.526;2024-02-28T04:53:52;3.00;;;2.28;;
56413;SDS011;42318;48.452;19.526;2024-02-28T04:56:53;2.80;;;2.38;;
56413;SDS011;42318;48.452;19.526;2024-02-28T04:59:53;4.38;;;2.55;;
56413;SDS011;42318;48.452;19.526;2024-02-28T05:02:54;2.88;;;2.47;;
56413;SDS011;42318;48.452;19.526;2024-02-28T05:05:55;2.90;;;2.15;;
56413;SDS011;42318;48.452;19.526;2024-02-28T05:08:55;2.42;;;2.17;;
56413;SDS011;42318;48.452;19.526;2024-02-28T05:11:56;2.67;;;2.20;;
56413;SDS011;42318;48.452;19.526;2024-02-28T05:14:56;3.15;;;2.42;;
56413;SDS011;42318;48.452;19.526;2024-02-28T05:17:57;2.85;;;2.40;;
56413;SDS011;42318;48.452;19.526;2024-02-28T05:21:00;2.58;;;2.35;;
56413;SDS011;42318;48.452;19.526;2024-02-28T05:24:01;2.85;;;2.30;;
56413;SDS011;42318;48.452;19.526;2024-02-28T05:27:02;2.53;;;2.30;;
56413;SDS011;42318;48.452;19.526;2024-02-28T05:30:02;2.95;;;2.28;;
56413;SDS011;42318;48.452;19.526;2024-02-28T05:33:06;3.00;;;2.05;;
56413;SDS011;42318;48.452;19.526;2024-02-28T05:36:06;2.58;;;2.20;;
56413;SDS011;42318;48.452;19.526;2024-02-28T05:39:07;2.35;;;2.15;;
56413;SDS011;42318;48.452;19.526;2024-02-28T05:42:08;3.10;;;2.50;;
56413;SDS011;42318;48.452;19.526;2024-02-28T05:45:09;2.67;;;2.47;;
56413;SDS011;42318;48.452;19.526;2024-02-28T05:48:10;2.90;;;2.33;;
56413;SDS011;42318;48.452;19.526;2024-02-28T05:51:11;2.70;;;2.35;;
56413;SDS011;42318;48.452;19.526;2024-02-28T05:54:13;2.45;;;2.17;;
56413;SDS011;42318;48.452;19.526;2024-02-28T05:57:14;2.90;;;2.50;;
56413;SDS011;42318;48.452;19.526;2024-02-28T06:00:14;2.28;;;1.85;;
56413;SDS011;42318;48.452;19.526;2024-02-28T06:03:15;3.42;;;2.35;;
56413;SDS011;42318;48.452;19.526;2024-02-28T06:06:15;3.88;;;2.53;;
56413;SDS011;42318;48.452;19.526;2024-02-28T06:09:16;2.80;;;2.30;;
56413;SDS011;42318;48.452;19.526;2024-02-28T06:12:17;2.83;;;2.20;;
56413;SDS011;42318;48.452;19.526;2024-02-28T06:15:18;3.03;;;2.30;;
56413;SDS011;42318;48.452;19.526;2024-02-28T06:18:18;2.83;;;2.35;;
56413;SDS011;42318;48.452;19.526;2024-02-28T06:21:21;2.67;;;2.22;;
56413;SDS011;42318;48.452;19.526;2024-02-28T06:24:23;2.53;;;2.08;;
56413;SDS011;42318;48.452;19.526;2024-02-28T06:27:23;2.88;;;2.30;;
56413;SDS011;42318;48.452;19.526;2024-02-28T06:30:24;3.50;;;2.30;;
56413;SDS011;42318;48.452;19.526;2024-02-28T06:33:25;3.42;;;2.33;;
56413;SDS011;42318;48.452;19.526;2024-02-28T06:36:25;2.42;;;1.90;;
56413;SDS011;42318;48.452;19.526;2024-02-28T06:39:26;2.50;;;2.30;;
56413;SDS011;42318;48.452;19.526;2024-02-28T06:42:27;2.90;;;2.60;;
56413;SDS011;42318;48.452;19.526;2024-02-28T06:45:27;2.28;;;1.98;;
56413;SDS011;42318;48.452;19.526;2024-02-28T06:48:28;3.00;;;2.30;;
56413;SDS011;42318;48.452;19.526;2024-02-28T06:51:29;2.70;;;2.33;;
56413;SDS011;42318;48.452;19.526;2024-02-28T06:54:30;3.45;;;2.40;;
56413;SDS011;42318;48.452;19.526;2024-02-28T06:57:31;2.75;;;2.30;;
56413;SDS011;42318;48.452;19.526;2024-02-28T07:00:31;2.88;;;2.30;;
56413;SDS011;42318;48.452;19.526;2024-02-28T07:03:32;3.97;;;2.63;;
56413;SDS011;42318;48.452;19.526;2024-02-28T07:06:32;2.80;;;2.47;;
56413;SDS011;42318;48.452;19.526;2024-02-28T07:09:33;3.45;;;2.47;;
56413;SDS011;42318;48.452;19.526;2024-02-28T07:12:34;2.85;;;2.30;;
56413;SDS011;42318;48.452;19.526;2024-02-28T07:15:35;4.85;;;2.50;;
56413;SDS011;42318;48.452;19.526;2024-02-28T07:18:36;3.00;;;2.50;;
56413;SDS011;42318;48.452;19.526;2024-02-28T07:21:37;3.25;;;2.28;;
56413;SDS011;42318;48.452;19.526;2024-02-28T07:24:37;2.90;;;2.65;;
56413;SDS011;42318;48.452;19.526;2024-02-28T07:27:38;3.88;;;2.90;;
56413;SDS011;42318;48.452;19.526;2024-02-28T07:30:38;3.30;;;2.47;;
56413;SDS011;42318;48.452;19.526;2024-02-28T07:33:40;2.88;;;2.47;;
56413;SDS011;42318;48.452;19.526;2024-02-28T07:36:40;2.92;;;2.42;;
56413;SDS011;42318;48.452;19.526;2024-02-28T07:39:41;3.25;;;2.33;;
56413;SDS011;42318;48.452;19.526;2024-02-28T07:42:41;3.03;;;2.40;;
56413;SDS011;42318;48.452;19.526;2024-02-28T07:45:45;2.47;;;2.10;;
56413;SDS011;42318;48.452;19.526;2024-02-28T07:48:45;2.78;;;2.40;;
56413;SDS011;42318;48.452;19.526;2024-02-28T07:51:46;3.42;;;2.60;;
56413;SDS011;42318;48.452;19.526;2024-02-28T07:54:46;3.42;;;2.88;;
56413;SDS011;42318;48.452;19.526;2024-02-28T07:57:47;4.40;;;2.72;;
56413;SDS011;42318;48.452;19.526;2024-02-28T08:00:51;3.23;;;2.70;;
56413;SDS011;42318;48.452;19.526;2024-02-28T08:03:54;3.20;;;2.75;;
56413;SDS011;42318;48.452;19.526;2024-02-28T08:06:55;3.30;;;2.67;;
56413;SDS011;42318;48.452;19.526;2024-02-28T08:09:55;2.80;;;2.25;;
56413;SDS011;42318;48.452;19.526;2024-02-28T08:12:56;4.32;;;2.72;;
56413;SDS011;42318;48.452;19.526;2024-02-28T08:15:57;2.97;;;2.67;;
56413;SDS011;42318;48.452;19.526;2024-02-28T08:18:57;3.33;;;2.60;;
56413;SDS011;42318;48.452;19.526;2024-02-28T08:21:59;2.92;;;2.30;;
56413;SDS011;42318;48.452;19.526;2024-02-28T08:24:59;3.08;;;2.45;;
56413;SDS011;42318;48.452;19.526;2024-02-28T08:28:00;3.15;;;2.17;;
56413;SDS011;42318;48.452;19.526;2024-02-28T08:31:01;2.88;;;2.47;;
56413;SDS011;42318;48.452;19.526;2024-02-28T08:34:01;2.90;;;2.60;;
56413;SDS011;42318;48.452;19.526;2024-02-28T08:37:04;4.30;;;2.85;;
56413;SDS011;42318;48.452;19.526;2024-02-28T08:40:07;4.55;;;2.88;;
56413;SDS011;42318;48.452;19.526;2024-02-28T08:43:08;2.72;;;2.33;;
56413;SDS011;42318;48.452;19.526;2024-02-28T08:46:09;4.10;;;2.58;;
56413;SDS011;42318;48.452;19.526;2024-02-28T08:49:14;3.20;;;2.55;;
56413;SDS011;42318;48.452;19.526;2024-02-28T08:52:15;3.17;;;2.70;;
56413;SDS011;42318;48.452;19.526;2024-02-28T08:55:16;3.55;;;2.40;;
56413;SDS011;42318;48.452;19.526;2024-02-28T08:58:19;3.65;;;2.70;;
56413;SDS011;42318;48.452;19.526;2024-02-28T09:01:19;3.15;;;2.67;;
56413;SDS011;42318;48.452;19.526;2024-02-28T09:04:20;3.67;;;2.65;;
56413;SDS011;42318;48.452;19.526;2024-02-28T09:07:21;3.00;;;2.30;;
56413;SDS011;42318;48.452;19.526;2024-02-28T09:10:22;3.28;;;2.58;;
56413;SDS011;42318;48.452;19.526;2024-02-28T09:13:24;2.85;;;2.33;;
56413;SDS011;42318;48.452;19.526;2024-02-28T09:16:25;3.03;;;2.35;;
56413;SDS011;42318;48.452;19.526;2024-02-28T09:19:25;3.22;;;2.92;;
56413;SDS011;42318;48.452;19.526;2024-02-28T09:22:26;3.33;;;2.58;;
56413;SDS011;42318;48.452;19.526;2024-02-28T09:25:26;3.88;;;2.67;;
56413;SDS011;42318;48.452;19.526;2024-02-28T09:28:27;3.58;;;2.90;;
56413;SDS011;42318;48.452;19.526;2024-02-28T09:31:28;3.13;;;2.50;;
56413;SDS011;42318;48.452;19.526;2024-02-28T09:34:28;3.10;;;2.65;;
56413;SDS011;42318;48.452;19.526;2024-02-28T09:37:29;2.63;;;2.40;;
56413;SDS011;42318;48.452;19.526;2024-02-28T09:40:30;3.45;;;2.90;;
56413;SDS011;42318;48.452;19.526;2024-02-28T09:43:31;4.45;;;2.70;;
56413;SDS011;42318;48.452;19.526;2024-02-28T09:46:36;2.47;;;2.17;;
56413;SDS011;42318;48.452;19.526;2024-02-28T09:49:37;2.75;;;2.20;;
56413;SDS011;42318;48.452;19.526;2024-02-28T09:52:38;3.88;;;2.80;;
56413;SDS011;42318;48.452;19.526;2024-02-28T09:55:38;4.00;;;2.60;;
56413;SDS011;42318;48.452;19.526;2024-02-28T09:58:39;3.70;;;2.67;;
56413;SDS011;42318;48.452;19.526;2024-02-28T10:01:43;3.00;;;2.70;;
56413;SDS011;42318;48.452;19.526;2024-02-28T10:04:47;2.80;;;2.45;;
56413;SDS011;42318;48.452;19.526;2024-02-28T10:07:49;4.70;;;2.40;;
56413;SDS011;42318;48.452;19.526;2024-02-28T10:10:50;2.85;;;2.50;;
56413;SDS011;42318;48.452;19.526;2024-02-28T10:13:54;3.80;;;2.55;;
56413;SDS011;42318;48.452;19.526;2024-02-28T10:16:55;3.42;;;2.60;;
56413;SDS011;42318;48.452;19.526;2024-02-28T10:19:57;3.28;;;2.40;;
56413;SDS011;42318;48.452;19.526;2024-02-28T10:22:59;3.22;;;2.53;;
56413;SDS011;42318;48.452;19.526;2024-02-28T10:26:00;3.55;;;2.70;;
56413;SDS011;42318;48.452;19.526;2024-02-28T10:29:02;3.35;;;2.47;;
56413;SDS011;42318;48.452;19.526;2024-02-28T10:32:03;3.47;;;2.78;;
56413;SDS011;42318;48.452;19.526;2024-02-28T10:35:06;4.05;;;2.60;;
56413;SDS011;42318;48.452;19.526;2024-02-28T10:38:11;4.35;;;2.55;;
56413;SDS011;42318;48.452;19.526;2024-02-28T10:44:14;3.88;;;2.78;;
56413;SDS011;42318;48.452;19.526;2024-02-28T10:47:17;2.95;;;2.60;;
56413;SDS011;42318;48.452;19.526;2024-02-28T10:50:17;3.13;;;2.35;;
56413;SDS011;42318;48.452;19.526;2024-02-28T10:53:20;3.10;;;2.35;;
56413;SDS011;42318;48.452;19.526;2024-02-28T10:56:22;2.63;;;2.35;;
56413;SDS011;42318;48.452;19.526;2024-02-28T10:59:23;3.28;;;2.75;;
56413;SDS011;42318;48.452;19.526;2024-02-28T11:02:25;4.45;;;2.65;;
56413;SDS011;42318;48.452;19.526;2024-02-28T11:05:40;4.03;;;2.42;;
56413;SDS011;42318;48.452;19.526;2024-02-28T11:11:46;2.72;;;2.33;;
56413;SDS011;42318;48.452;19.526;2024-02-28T11:14:55;2.90;;;2.60;;
56413;SDS011;42318;48.452;19.526;2024-02-28T11:18:06;3.10;;;2.50;;
56413;SDS011;42318;48.452;19.526;2024-02-28T11:21:15;3.13;;;2.70;;
56413;SDS011;42318;48.452;19.526;2024-02-28T11:24:17;3.35;;;2.50;;
56413;SDS011;42318;48.452;19.526;2024-02-28T11:27:18;4.38;;;2.60;;
56413;SDS011;42318;48.452;19.526;2024-02-28T11:30:19;3.33;;;2.75;;
56413;SDS011;42318;48.452;19.526;2024-02-28T11:33:21;3.13;;;2.42;;
56413;SDS011;42318;48.452;19.526;2024-02-28T11:36:22;3.35;;;2.90;;
56413;SDS011;42318;48.452;19.526;2024-02-28T11:39:23;3.15;;;2.65;;
56413;SDS011;42318;48.452;19.526;2024-02-28T11:42:25;3.10;;;2.67;;
56413;SDS011;42318;48.452;19.526;2024-02-28T11:45:25;4.25;;;2.60;;
56413;SDS011;42318;48.452;19.526;2024-02-28T11:48:26;3.13;;;2.50;;
56413;SDS011;42318;48.452;19.526;2024-02-28T11:51:29;3.20;;;2.38;;
56413;SDS011;42318;48.452;19.526;2024-02-28T11:54:30;3.33;;;2.70;;
56413;SDS011;42318;48.452;19.526;2024-02-28T11:57:31;3.42;;;2.83;;
56413;SDS011;42318;48.452;19.526;2024-02-28T12:00:33;3.35;;;2.47;;
56413;SDS011;42318;48.452;19.526;2024-02-28T12:03:34;2.40;;;2.20;;
56413;SDS011;42318;48.452;19.526;2024-02-28T12:06:39;3.08;;;2.45;;
56413;SDS011;42318;48.452;19.526;2024-02-28T12:12:44;3.17;;;2.50;;
56413;SDS011;42318;48.452;19.526;2024-02-28T12:15:44;3.50;;;2.53;;
56413;SDS011;42318;48.452;19.526;2024-02-28T12:18:47;3.38;;;2.60;;
56413;SDS011;42318;48.452;19.526;2024-02-28T12:21:47;3.72;;;2.40;;
56413;SDS011;42318;48.452;19.526;2024-02-28T12:24:48;4.05;;;2.58;;
56413;SDS011;42318;48.452;19.526;2024-02-28T12:27:49;3.33;;;2.67;;
56413;SDS011;42318;48.452;19.526;2024-02-28T12:30:50;2.90;;;2.40;;
56413;SDS011;42318;48.452;19.526;2024-02-28T12:33:53;3.08;;;2.42;;
56413;SDS011;42318;48.452;19.526;2024-02-28T12:36:54;3.78;;;2.78;;
56413;SDS011;42318;48.452;19.526;2024-02-28T12:39:55;2.83;;;2.50;;
56413;SDS011;42318;48.452;19.526;2024-02-28T12:42:55;4.35;;;2.60;;
56413;SDS011;42318;48.452;19.526;2024-02-28T12:45:56;2.95;;;2.47;;
56413;SDS011;42318;48.452;19.526;2024-02-28T12:48:57;3.47;;;2.67;;
56413;SDS011;42318;48.452;19.526;2024-02-28T12:51:58;3.95;;;2.85;;
56413;SDS011;42318;48.452;19.526;2024-02-28T12:54:58;3.38;;;2.40;;
56413;SDS011;42318;48.452;19.526;2024-02-28T12:57:59;3.63;;;2.63;;
56413;SDS011;42318;48.452;19.526;2024-02-28T13:01:01;3.53;;;2.80;;
56413;SDS011;42318;48.452;19.526;2024-02-28T13:04:02;3.25;;;2.60;;
56413;SDS011;42318;48.452;19.526;2024-02-28T13:07:03;3.45;;;2.85;;
56413;SDS011;42318;48.452;19.526;2024-02-28T13:10:04;3.85;;;2.50;;
56413;SDS011;42318;48.452;19.526;2024-02-28T13:13:05;3.75;;;2.50;;
56413;SDS011;42318;48.452;19.526;2024-02-28T13:16:08;3.22;;;2.72;;
56413;SDS011;42318;48.452;19.526;2024-02-28T13:19:09;4.53;;;2.75;;
56413;SDS011;42318;48.452;19.526;2024-02-28T13:22:09;3.95;;;2.70;;
56413;SDS011;42318;48.452;19.526;2024-02-28T13:25:11;3.10;;;2.42;;
56413;SDS011;42318;48.452;19.526;2024-02-28T13:28:12;4.72;;;2.92;;
56413;SDS011;42318;48.452;19.526;2024-02-28T13:31:13;4.32;;;2.90;;
56413;SDS011;42318;48.452;19.526;2024-02-28T13:34:13;3.35;;;2.60;;
56413;SDS011;42318;48.452;19.526;2024-02-28T13:37:15;3.83;;;2.92;;
56413;SDS011;42318;48.452;19.526;2024-02-28T13:40:15;4.90;;;3.08;;
56413;SDS011;42318;48.452;19.526;2024-02-28T13:43:16;3.58;;;3.05;;
56413;SDS011;42318;48.452;19.526;2024-02-28T13:46:18;4.50;;;3.00;;
56413;SDS011;42318;48.452;19.526;2024-02-28T13:49:20;3.88;;;3.35;;
56413;SDS011;42318;48.452;19.526;2024-02-28T13:52:20;4.43;;;2.92;;
56413;SDS011;42318;48.452;19.526;2024-02-28T13:55:23;3.83;;;3.15;;
56413;SDS011;42318;48.452;19.526;2024-02-28T13:58:23;3.40;;;2.67;;
56413;SDS011;42318;48.452;19.526;2024-02-28T14:01:24;3.13;;;2.50;;
56413;SDS011;42318;48.452;19.526;2024-02-28T14:04:25;3.53;;;2.80;;
56413;SDS011;42318;48.452;19.526;2024-02-28T14:07:26;3.75;;;3.08;;
56413;SDS011;42318;48.452;19.526;2024-02-28T14:10:26;3.97;;;2.70;;
56413;SDS011;42318;48.452;19.526;2024-02-28T14:13:27;3.28;;;2.90;;
56413;SDS011;42318;48.452;19.526;2024-02-28T14:16:29;3.58;;;3.08;;
56413;SDS011;42318;48.452;19.526;2024-02-28T14:19:30;3.75;;;2.80;;
56413;SDS011;42318;48.452;19.526;2024-02-28T14:22:31;4.32;;;2.95;;
56413;SDS011;42318;48.452;19.526;2024-02-28T14:25:31;4.03;;;3.15;;
56413;SDS011;42318;48.452;19.526;2024-02-28T14:28:32;4.57;;;3.17;;
56413;SDS011;42318;48.452;19.526;2024-02-28T14:31:33;3.58;;;2.83;;
56413;SDS011;42318;48.452;19.526;2024-02-28T14:34:34;4.25;;;3.20;;
56413;SDS011;42318;48.452;19.526;2024-02-28T14:37:36;3.75;;;3.17;;
56413;SDS011;42318;48.452;19.526;2024-02-28T14:40:39;4.35;;;3.22;;
56413;SDS011;42318;48.452;19.526;2024-02-28T14:43:41;5.32;;;3.15;;
56413;SDS011;42318;48.452;19.526;2024-02-28T14:46:41;4.13;;;3.22;;
56413;SDS011;42318;48.452;19.526;2024-02-28T14:49:42;4.13;;;3.22;;
56413;SDS011;42318;48.452;19.526;2024-02-28T14:52:42;4.25;;;2.80;;
56413;SDS011;42318;48.452;19.526;2024-02-28T14:55:43;3.80;;;3.22;;
56413;SDS011;42318;48.452;19.526;2024-02-28T14:58:47;4.07;;;3.17;;
56413;SDS011;42318;48.452;19.526;2024-02-28T15:01:47;4.35;;;3.00;;
56413;SDS011;42318;48.452;19.526;2024-02-28T15:04:48;4.30;;;3.30;;
56413;SDS011;42318;48.452;19.526;2024-02-28T15:07:50;4.72;;;3.08;;
56413;SDS011;42318;48.452;19.526;2024-02-28T15:10:50;3.95;;;2.85;;
56413;SDS011;42318;48.452;19.526;2024-02-28T15:13:53;3.90;;;2.83;;
56413;SDS011;42318;48.452;19.526;2024-02-28T15:16:53;3.55;;;2.90;;
56413;SDS011;42318;48.452;19.526;2024-02-28T15:19:54;3.80;;;3.17;;
56413;SDS011;42318;48.452;19.526;2024-02-28T15:22:54;3.25;;;2.63;;
56413;SDS011;42318;48.452;19.526;2024-02-28T15:25:55;3.30;;;2.95;;
56413;SDS011;42318;48.452;19.526;2024-02-28T15:28:56;3.95;;;3.00;;
56413;SDS011;42318;48.452;19.526;2024-02-28T15:31:57;3.63;;;3.13;;
56413;SDS011;42318;48.452;19.526;2024-02-28T15:34:58;3.88;;;3.17;;
56413;SDS011;42318;48.452;19.526;2024-02-28T15:37:58;4.07;;;2.97;;
56413;SDS011;42318;48.452;19.526;2024-02-28T15:40:59;3.60;;;2.80;;
56413;SDS011;42318;48.452;19.526;2024-02-28T15:44:00;3.55;;;3.00;;
56413;SDS011;42318;48.452;19.526;2024-02-28T15:47:00;3.25;;;2.90;;
56413;SDS011;42318;48.452;19.526;2024-02-28T15:50:02;3.80;;;3.00;;
56413;SDS011;42318;48.452;19.526;2024-02-28T15:53:04;3.80;;;2.88;;
56413;SDS011;42318;48.452;19.526;2024-02-28T15:56:06;3.80;;;2.95;;
56413;SDS011;42318;48.452;19.526;2024-02-28T15:59:06;3.88;;;3.00;;
56413;SDS011;42318;48.452;19.526;2024-02-28T16:02:07;4.13;;;3.08;;
56413;SDS011;42318;48.452;19.526;2024-02-28T16:05:10;3.58;;;2.78;;
56413;SDS011;42318;48.452;19.526;2024-02-28T16:08:10;3.70;;;2.88;;
56413;SDS011;42318;48.452;19.526;2024-02-28T16:11:11;4.38;;;2.65;;
56413;SDS011;42318;48.452;19.526;2024-02-28T16:14:12;3.70;;;2.90;;
56413;SDS011;42318;48.452;19.526;2024-02-28T16:17:13;4.10;;;2.90;;
56413;SDS011;42318;48.452;19.526;2024-02-28T16:20:16;3.72;;;3.00;;
56413;SDS011;42318;48.452;19.526;2024-02-28T16:23:18;3.63;;;2.65;;
56413;SDS011;42318;48.452;19.526;2024-02-28T16:26:18;3.28;;;2.90;;
56413;SDS011;42318;48.452;19.526;2024-02-28T16:29:19;3.33;;;2.53;;
56413;SDS011;42318;48.452;19.526;2024-02-28T16:32:20;3.53;;;2.72;;
56413;SDS011;42318;48.452;19.526;2024-02-28T16:35:20;4.68;;;2.85;;
56413;SDS011;42318;48.452;19.526;2024-02-28T16:38:21;4.07;;;3.00;;
56413;SDS011;42318;48.452;19.526;2024-02-28T16:41:21;3.53;;;2.88;;
56413;SDS011;42318;48.452;19.526;2024-02-28T16:44:24;4.25;;;3.13;;
56413;SDS011;42318;48.452;19.526;2024-02-28T16:47:25;5.47;;;3.30;;
56413;SDS011;42318;48.452;19.526;2024-02-28T16:50:25;3.92;;;2.97;;
56413;SDS011;42318;48.452;19.526;2024-02-28T16:53:26;5.95;;;3.30;;
56413;SDS011;42318;48.452;19.526;2024-02-28T16:56:30;3.40;;;2.75;;
56413;SDS011;42318;48.452;19.526;2024-02-28T16:59:31;4.60;;;2.90;;
56413;SDS011;42318;48.452;19.526;2024-02-28T17:02:32;5.00;;;3.38;;
56413;SDS011;42318;48.452;19.526;2024-02-28T17:05:32;4.43;;;2.88;;
56413;SDS011;42318;48.452;19.526;2024-02-28T17:08:37;3.95;;;3.10;;
56413;SDS011;42318;48.452;19.526;2024-02-28T17:11:38;3.72;;;3.03;;
56413;SDS011;42318;48.452;19.526;2024-02-28T17:14:39;4.68;;;3.22;;
56413;SDS011;42318;48.452;19.526;2024-02-28T17:17:39;3.83;;;3.10;;
56413;SDS011;42318;48.452;19.526;2024-02-28T17:20:40;3.95;;;3.30;;
56413;SDS011;42318;48.452;19.526;2024-02-28T17:23:40;5.32;;;3.10;;
56413;SDS011;42318;48.452;19.526;2024-02-28T17:26:41;4.10;;;2.75;;
56413;SDS011;42318;48.452;19.526;2024-02-28T17:29:42;3.65;;;2.90;;
56413;SDS011;42318;48.452;19.526;2024-02-28T17:32:42;4.53;;;3.03;;
56413;SDS011;42318;48.452;19.526;2024-02-28T17:35:43;4.03;;;3.30;;
56413;SDS011;42318;48.452;19.526;2024-02-28T17:38:45;4.25;;;2.80;;
56413;SDS011;42318;48.452;19.526;2024-02-28T17:41:46;4.25;;;3.22;;
56413;SDS011;42318;48.452;19.526;2024-02-28T17:44:48;3.97;;;3.33;;
56413;SDS011;42318;48.452;19.526;2024-02-28T17:47:50;3.83;;;3.08;;
56413;SDS011;42318;48.452;19.526;2024-02-28T17:50:51;5.05;;;3.20;;
56413;SDS011;42318;48.452;19.526;2024-02-28T17:53:51;3.05;;;2.53;;
56413;SDS011;42318;48.452;19.526;2024-02-28T17:56:52;3.45;;;2.70;;
56413;SDS011;42318;48.452;19.526;2024-02-28T17:59:53;5.25;;;3.15;;
56413;SDS011;42318;48.452;19.526;2024-02-28T18:02:54;4.22;;;2.72;;